sensor_id;sensor_type;location;lat;lon;timestamp;P1;durP1;ratioP1;P2;durP2;ratioP2
25495;SDS011;13405;54.370;10.028;2022-08-07T00:01:07;4.13;;;2.33;;
25495;SDS011;13405;54.370;10.028;2022-08-07T00:03:33;3.05;;;1.92;;
25495;SDS011;13405;54.370;10.028;2022-08-07T00:05:59;3.22;;;2.13;;
25495;SDS011;13405;54.370;10.028;2022-08-07T00:08:25;5.00;;;1.83;;
25495;SDS011;13405;54.370;10.028;2022-08-07T00:10:52;4.38;;;2.00;;
25495;SDS011;13405;54.370;10.028;2022-08-07T00:13:18;2.40;;;2.00;;
25495;SDS011;13405;54.370;10.028;2022-08-07T00:15:44;4.15;;;1.67;;
25495;SDS011;13405;54.370;10.028;2022-08-07T00:18:11;3.13;;;1.70;;
25495;SDS011;13405;54.370;10.028;2022-08-07T00:20:37;5.20;;;2.00;;
25495;SDS011;13405;54.370;10.028;2022-08-07T00:23:04;2.50;;;1.92;;
25495;SDS011;13405;54.370;10.028;2022-08-07T00:25:31;4.50;;;1.88;;
25495;SDS011;13405;54.370;10.028;2022-08-07T00:27:57;4.18;;;2.08;;
25495;SDS011;13405;54.370;10.028;2022-08-07T00:30:23;3.28;;;2.03;;
25495;SDS011;13405;54.370;10.028;2022-08-07T00:32:49;4.22;;;1.88;;
25495;SDS011;13405;54.370;10.028;2022-08-07T00:35:19;2.60;;;1.80;;
25495;SDS011;13405;54.370;10.028;2022-08-07T00:37:45;3.10;;;2.03;;
25495;SDS011;13405;54.370;10.028;2022-08-07T00:40:12;3.35;;;2.17;;
25495;SDS011;13405;54.370;10.028;2022-08-07T00:42:38;4.72;;;2.20;;
25495;SDS011;13405;54.370;10.028;2022-08-07T00:45:06;4.78;;;2.45;;
25495;SDS011;13405;54.370;10.028;2022-08-07T00:47:32;3.42;;;2.03;;
25495;SDS011;13405;54.370;10.028;2022-08-07T00:49:59;3.33;;;2.05;;
25495;SDS011;13405;54.370;10.028;2022-08-07T00:52:25;4.22;;;2.30;;
25495;SDS011;13405;54.370;10.028;2022-08-07T00:54:51;4.15;;;2.40;;
25495;SDS011;13405;54.370;10.028;2022-08-07T00:57:17;2.60;;;1.48;;
25495;SDS011;13405;54.370;10.028;2022-08-07T00:59:43;3.95;;;2.22;;
25495;SDS011;13405;54.370;10.028;2022-08-07T01:02:10;4.90;;;2.50;;
25495;SDS011;13405;54.370;10.028;2022-08-07T01:04:37;4.38;;;2.60;;
25495;SDS011;13405;54.370;10.028;2022-08-07T01:07:03;4.60;;;2.65;;
25495;SDS011;13405;54.370;10.028;2022-08-07T01:09:30;5.82;;;3.15;;
25495;SDS011;13405;54.370;10.028;2022-08-07T01:11:56;5.00;;;2.60;;
25495;SDS011;13405;54.370;10.028;2022-08-07T01:14:23;5.05;;;2.55;;
25495;SDS011;13405;54.370;10.028;2022-08-07T01:16:49;3.58;;;2.13;;
25495;SDS011;13405;54.370;10.028;2022-08-07T01:19:16;4.05;;;2.28;;
25495;SDS011;13405;54.370;10.028;2022-08-07T01:21:42;4.90;;;1.90;;
25495;SDS011;13405;54.370;10.028;2022-08-07T01:24:09;3.85;;;1.92;;
25495;SDS011;13405;54.370;10.028;2022-08-07T01:26:36;3.22;;;2.13;;
25495;SDS011;13405;54.370;10.028;2022-08-07T01:29:02;4.45;;;2.10;;
25495;SDS011;13405;54.370;10.028;2022-08-07T01:31:29;2.35;;;2.05;;
25495;SDS011;13405;54.370;10.028;2022-08-07T01:33:58;4.25;;;2.17;;
25495;SDS011;13405;54.370;10.028;2022-08-07T01:36:25;3.92;;;2.00;;
25495;SDS011;13405;54.370;10.028;2022-08-07T01:38:52;3.35;;;2.15;;
25495;SDS011;13405;54.370;10.028;2022-08-07T01:41:18;3.47;;;2.10;;
25495;SDS011;13405;54.370;10.028;2022-08-07T01:43:45;4.57;;;2.45;;
25495;SDS011;13405;54.370;10.028;2022-08-07T01:46:11;3.97;;;2.42;;
25495;SDS011;13405;54.370;10.028;2022-08-07T01:48:39;4.13;;;2.42;;
25495;SDS011;13405;54.370;10.028;2022-08-07T01:51:07;4.07;;;2.42;;
25495;SDS011;13405;54.370;10.028;2022-08-07T01:53:34;2.45;;;1.52;;
25495;SDS011;13405;54.370;10.028;2022-08-07T01:56:02;4.70;;;2.38;;
25495;SDS011;13405;54.370;10.028;2022-08-07T01:58:30;5.03;;;2.33;;
25495;SDS011;13405;54.370;10.028;2022-08-07T02:00:58;4.47;;;2.67;;
25495;SDS011;13405;54.370;10.028;2022-08-07T02:03:26;3.60;;;1.75;;
25495;SDS011;13405;54.370;10.028;2022-08-07T02:06:01;4.30;;;2.70;;
25495;SDS011;13405;54.370;10.028;2022-08-07T02:08:28;3.85;;;2.38;;
25495;SDS011;13405;54.370;10.028;2022-08-07T02:10:55;5.63;;;2.83;;
25495;SDS011;13405;54.370;10.028;2022-08-07T02:13:24;4.15;;;2.50;;
25495;SDS011;13405;54.370;10.028;2022-08-07T02:15:51;4.07;;;2.28;;
25495;SDS011;13405;54.370;10.028;2022-08-07T02:18:18;3.22;;;2.40;;
25495;SDS011;13405;54.370;10.028;2022-08-07T02:20:46;1.50;;;0.85;;
25495;SDS011;13405;54.370;10.028;2022-08-07T02:23:13;3.15;;;2.15;;
25495;SDS011;13405;54.370;10.028;2022-08-07T02:25:40;2.22;;;1.80;;
25495;SDS011;13405;54.370;10.028;2022-08-07T02:28:06;3.35;;;1.88;;
25495;SDS011;13405;54.370;10.028;2022-08-07T02:30:33;4.00;;;2.67;;
25495;SDS011;13405;54.370;10.028;2022-08-07T02:33:00;5.85;;;2.80;;
25495;SDS011;13405;54.370;10.028;2022-08-07T02:35:27;5.85;;;2.63;;
25495;SDS011;13405;54.370;10.028;2022-08-07T02:37:53;4.13;;;2.80;;
25495;SDS011;13405;54.370;10.028;2022-08-07T02:40:20;3.35;;;1.30;;
25495;SDS011;13405;54.370;10.028;2022-08-07T02:42:47;5.70;;;3.25;;
25495;SDS011;13405;54.370;10.028;2022-08-07T02:45:13;6.45;;;3.13;;
25495;SDS011;13405;54.370;10.028;2022-08-07T02:47:41;3.38;;;1.10;;
25495;SDS011;13405;54.370;10.028;2022-08-07T02:50:07;4.45;;;3.17;;
25495;SDS011;13405;54.370;10.028;2022-08-07T02:52:37;2.00;;;1.35;;
25495;SDS011;13405;54.370;10.028;2022-08-07T02:55:23;4.45;;;2.80;;
25495;SDS011;13405;54.370;10.028;2022-08-07T02:57:50;6.35;;;2.90;;
25495;SDS011;13405;54.370;10.028;2022-08-07T03:00:17;5.03;;;2.80;;
25495;SDS011;13405;54.370;10.028;2022-08-07T03:02:44;4.40;;;2.53;;
25495;SDS011;13405;54.370;10.028;2022-08-07T03:05:11;7.38;;;2.67;;
25495;SDS011;13405;54.370;10.028;2022-08-07T03:07:38;4.00;;;2.72;;
25495;SDS011;13405;54.370;10.028;2022-08-07T03:10:04;1.80;;;1.10;;
25495;SDS011;13405;54.370;10.028;2022-08-07T03:12:31;4.68;;;2.55;;
25495;SDS011;13405;54.370;10.028;2022-08-07T03:14:57;4.45;;;2.67;;
25495;SDS011;13405;54.370;10.028;2022-08-07T03:17:23;1.33;;;0.70;;
25495;SDS011;13405;54.370;10.028;2022-08-07T03:19:49;2.75;;;2.20;;
25495;SDS011;13405;54.370;10.028;2022-08-07T03:22:15;3.60;;;2.55;;
25495;SDS011;13405;54.370;10.028;2022-08-07T03:24:43;3.80;;;2.28;;
25495;SDS011;13405;54.370;10.028;2022-08-07T03:27:09;4.72;;;2.30;;
25495;SDS011;13405;54.370;10.028;2022-08-07T03:29:40;4.07;;;2.47;;
25495;SDS011;13405;54.370;10.028;2022-08-07T03:32:07;3.90;;;2.28;;
25495;SDS011;13405;54.370;10.028;2022-08-07T03:34:35;4.43;;;2.58;;
25495;SDS011;13405;54.370;10.028;2022-08-07T03:37:02;1.30;;;0.73;;
25495;SDS011;13405;54.370;10.028;2022-08-07T03:39:30;12.98;;;2.70;;
25495;SDS011;13405;54.370;10.028;2022-08-07T03:41:57;3.85;;;2.55;;
25495;SDS011;13405;54.370;10.028;2022-08-07T03:44:24;9.45;;;2.72;;
25495;SDS011;13405;54.370;10.028;2022-08-07T03:46:51;4.53;;;2.70;;
25495;SDS011;13405;54.370;10.028;2022-08-07T03:49:17;5.57;;;2.53;;
25495;SDS011;13405;54.370;10.028;2022-08-07T03:51:43;6.22;;;2.75;;
25495;SDS011;13405;54.370;10.028;2022-08-07T03:54:09;5.53;;;2.92;;
25495;SDS011;13405;54.370;10.028;2022-08-07T03:56:35;5.68;;;3.17;;
25495;SDS011;13405;54.370;10.028;2022-08-07T03:59:04;6.60;;;3.05;;
25495;SDS011;13405;54.370;10.028;2022-08-07T04:01:30;4.78;;;2.75;;
25495;SDS011;13405;54.370;10.028;2022-08-07T04:03:57;4.00;;;2.67;;
25495;SDS011;13405;54.370;10.028;2022-08-07T04:06:23;5.93;;;2.95;;
25495;SDS011;13405;54.370;10.028;2022-08-07T04:08:50;4.70;;;2.85;;
25495;SDS011;13405;54.370;10.028;2022-08-07T04:11:16;4.30;;;2.60;;
25495;SDS011;13405;54.370;10.028;2022-08-07T04:13:42;4.70;;;3.25;;
25495;SDS011;13405;54.370;10.028;2022-08-07T04:16:09;4.45;;;3.05;;
25495;SDS011;13405;54.370;10.028;2022-08-07T04:18:35;4.63;;;2.97;;
25495;SDS011;13405;54.370;10.028;2022-08-07T04:21:02;5.00;;;3.40;;
25495;SDS011;13405;54.370;10.028;2022-08-07T04:23:28;7.68;;;3.50;;
25495;SDS011;13405;54.370;10.028;2022-08-07T04:25:56;4.95;;;3.20;;
25495;SDS011;13405;54.370;10.028;2022-08-07T04:28:23;4.55;;;3.10;;
25495;SDS011;13405;54.370;10.028;2022-08-07T04:30:49;4.07;;;1.20;;
25495;SDS011;13405;54.370;10.028;2022-08-07T04:33:15;6.47;;;3.45;;
25495;SDS011;13405;54.370;10.028;2022-08-07T04:35:45;4.72;;;1.58;;
25495;SDS011;13405;54.370;10.028;2022-08-07T04:38:11;6.93;;;3.42;;
25495;SDS011;13405;54.370;10.028;2022-08-07T04:40:38;5.47;;;2.90;;
25495;SDS011;13405;54.370;10.028;2022-08-07T04:43:05;5.82;;;3.35;;
25495;SDS011;13405;54.370;10.028;2022-08-07T04:48:19;5.07;;;1.33;;
25495;SDS011;13405;54.370;10.028;2022-08-07T04:51:00;6.95;;;3.92;;
25495;SDS011;13405;54.370;10.028;2022-08-07T04:53:45;5.13;;;1.48;;
25495;SDS011;13405;54.370;10.028;2022-08-07T05:04:09;1.40;;;1.10;;
25495;SDS011;13405;54.370;10.028;2022-08-07T05:06:48;6.07;;;3.35;;
25495;SDS011;13405;54.370;10.028;2022-08-07T05:09:23;8.82;;;3.15;;
25495;SDS011;13405;54.370;10.028;2022-08-07T05:11:51;4.68;;;3.17;;
25495;SDS011;13405;54.370;10.028;2022-08-07T05:14:37;2.33;;;1.17;;
25495;SDS011;13405;54.370;10.028;2022-08-07T05:17:03;3.17;;;1.38;;
25495;SDS011;13405;54.370;10.028;2022-08-07T05:19:33;1.80;;;1.38;;
25495;SDS011;13405;54.370;10.028;2022-08-07T05:22:00;5.55;;;3.20;;
25495;SDS011;13405;54.370;10.028;2022-08-07T05:24:27;8.38;;;4.35;;
25495;SDS011;13405;54.370;10.028;2022-08-07T05:26:54;7.28;;;3.60;;
25495;SDS011;13405;54.370;10.028;2022-08-07T05:29:22;5.47;;;3.42;;
25495;SDS011;13405;54.370;10.028;2022-08-07T05:31:48;6.65;;;3.63;;
25495;SDS011;13405;54.370;10.028;2022-08-07T05:34:15;6.35;;;3.53;;
25495;SDS011;13405;54.370;10.028;2022-08-07T05:36:43;6.10;;;3.20;;
25495;SDS011;13405;54.370;10.028;2022-08-07T05:39:10;5.72;;;3.17;;
25495;SDS011;13405;54.370;10.028;2022-08-07T05:41:37;7.50;;;3.50;;
25495;SDS011;13405;54.370;10.028;2022-08-07T05:44:03;8.15;;;3.28;;
25495;SDS011;13405;54.370;10.028;2022-08-07T05:46:30;9.73;;;3.63;;
25495;SDS011;13405;54.370;10.028;2022-08-07T05:48:56;7.20;;;3.63;;
25495;SDS011;13405;54.370;10.028;2022-08-07T05:51:22;7.15;;;3.70;;
25495;SDS011;13405;54.370;10.028;2022-08-07T05:53:49;7.85;;;3.78;;
25495;SDS011;13405;54.370;10.028;2022-08-07T05:56:15;6.13;;;3.53;;
25495;SDS011;13405;54.370;10.028;2022-08-07T05:58:41;5.47;;;3.53;;
25495;SDS011;13405;54.370;10.028;2022-08-07T06:01:10;6.75;;;3.20;;
25495;SDS011;13405;54.370;10.028;2022-08-07T06:03:37;6.25;;;2.75;;
25495;SDS011;13405;54.370;10.028;2022-08-07T06:06:04;6.60;;;3.97;;
25495;SDS011;13405;54.370;10.028;2022-08-07T06:08:31;6.88;;;3.67;;
25495;SDS011;13405;54.370;10.028;2022-08-07T06:10:57;7.20;;;3.63;;
25495;SDS011;13405;54.370;10.028;2022-08-07T06:13:24;5.25;;;3.15;;
25495;SDS011;13405;54.370;10.028;2022-08-07T06:15:50;5.00;;;2.78;;
25495;SDS011;13405;54.370;10.028;2022-08-07T06:18:16;8.15;;;3.13;;
25495;SDS011;13405;54.370;10.028;2022-08-07T06:20:43;5.45;;;3.08;;
25495;SDS011;13405;54.370;10.028;2022-08-07T06:23:09;5.13;;;2.80;;
25495;SDS011;13405;54.370;10.028;2022-08-07T06:25:36;5.97;;;3.10;;
25495;SDS011;13405;54.370;10.028;2022-08-07T06:28:03;8.18;;;3.88;;
25495;SDS011;13405;54.370;10.028;2022-08-07T06:30:29;8.35;;;3.08;;
25495;SDS011;13405;54.370;10.028;2022-08-07T06:32:55;5.32;;;3.35;;
25495;SDS011;13405;54.370;10.028;2022-08-07T06:35:21;3.15;;;2.13;;
25495;SDS011;13405;54.370;10.028;2022-08-07T06:37:47;5.47;;;2.97;;
25495;SDS011;13405;54.370;10.028;2022-08-07T06:40:13;4.25;;;2.58;;
25495;SDS011;13405;54.370;10.028;2022-08-07T06:42:39;5.15;;;2.95;;
25495;SDS011;13405;54.370;10.028;2022-08-07T06:45:09;4.05;;;2.60;;
25495;SDS011;13405;54.370;10.028;2022-08-07T06:47:36;5.00;;;3.10;;
25495;SDS011;13405;54.370;10.028;2022-08-07T06:50:03;5.03;;;2.67;;
25495;SDS011;13405;54.370;10.028;2022-08-07T06:52:29;5.32;;;3.03;;
25495;SDS011;13405;54.370;10.028;2022-08-07T06:54:57;8.55;;;3.00;;
25495;SDS011;13405;54.370;10.028;2022-08-07T06:57:24;6.45;;;3.13;;
25495;SDS011;13405;54.370;10.028;2022-08-07T06:59:51;6.18;;;2.53;;
25495;SDS011;13405;54.370;10.028;2022-08-07T07:02:18;4.05;;;2.28;;
25495;SDS011;13405;54.370;10.028;2022-08-07T07:04:45;4.65;;;3.03;;
25495;SDS011;13405;54.370;10.028;2022-08-07T07:07:12;4.15;;;1.80;;
25495;SDS011;13405;54.370;10.028;2022-08-07T07:09:47;5.57;;;3.28;;
25495;SDS011;13405;54.370;10.028;2022-08-07T07:17:19;6.00;;;3.60;;
25495;SDS011;13405;54.370;10.028;2022-08-07T07:19:47;4.82;;;3.05;;
25495;SDS011;13405;54.370;10.028;2022-08-07T07:22:15;6.57;;;3.30;;
25495;SDS011;13405;54.370;10.028;2022-08-07T07:24:42;4.00;;;2.88;;
25495;SDS011;13405;54.370;10.028;2022-08-07T07:27:09;5.13;;;3.40;;
25495;SDS011;13405;54.370;10.028;2022-08-07T07:29:37;6.40;;;3.53;;
25495;SDS011;13405;54.370;10.028;2022-08-07T07:32:04;4.97;;;3.33;;
25495;SDS011;13405;54.370;10.028;2022-08-07T07:34:32;4.40;;;3.20;;
25495;SDS011;13405;54.370;10.028;2022-08-07T07:36:59;4.70;;;2.53;;
25495;SDS011;13405;54.370;10.028;2022-08-07T07:39:26;5.20;;;2.70;;
25495;SDS011;13405;54.370;10.028;2022-08-07T07:41:54;5.70;;;3.55;;
25495;SDS011;13405;54.370;10.028;2022-08-07T07:44:21;5.70;;;2.85;;
25495;SDS011;13405;54.370;10.028;2022-08-07T07:46:47;4.85;;;3.20;;
25495;SDS011;13405;54.370;10.028;2022-08-07T07:49:15;4.82;;;3.08;;
25495;SDS011;13405;54.370;10.028;2022-08-07T07:51:42;7.13;;;3.22;;
25495;SDS011;13405;54.370;10.028;2022-08-07T07:54:09;5.38;;;3.38;;
25495;SDS011;13405;54.370;10.028;2022-08-07T07:56:38;5.97;;;3.17;;
25495;SDS011;13405;54.370;10.028;2022-08-07T07:59:05;5.38;;;2.97;;
25495;SDS011;13405;54.370;10.028;2022-08-07T08:01:33;6.60;;;3.58;;
25495;SDS011;13405;54.370;10.028;2022-08-07T08:04:01;5.93;;;2.63;;
25495;SDS011;13405;54.370;10.028;2022-08-07T08:06:28;6.60;;;3.33;;
25495;SDS011;13405;54.370;10.028;2022-08-07T08:08:55;11.98;;;3.00;;
25495;SDS011;13405;54.370;10.028;2022-08-07T08:11:22;6.15;;;3.05;;
25495;SDS011;13405;54.370;10.028;2022-08-07T08:13:48;4.65;;;3.25;;
25495;SDS011;13405;54.370;10.028;2022-08-07T08:16:15;7.75;;;3.17;;
25495;SDS011;13405;54.370;10.028;2022-08-07T08:18:43;5.38;;;3.10;;
25495;SDS011;13405;54.370;10.028;2022-08-07T08:21:10;6.20;;;3.10;;
25495;SDS011;13405;54.370;10.028;2022-08-07T08:23:59;3.10;;;2.60;;
25495;SDS011;13405;54.370;10.028;2022-08-07T08:26:44;7.40;;;3.00;;
25495;SDS011;13405;54.370;10.028;2022-08-07T08:29:33;3.50;;;2.60;;
25495;SDS011;13405;54.370;10.028;2022-08-07T08:32:02;4.97;;;2.38;;
25495;SDS011;13405;54.370;10.028;2022-08-07T08:34:29;4.85;;;2.45;;
25495;SDS011;13405;54.370;10.028;2022-08-07T08:36:56;4.03;;;2.47;;
25495;SDS011;13405;54.370;10.028;2022-08-07T08:39:23;5.75;;;2.95;;
25495;SDS011;13405;54.370;10.028;2022-08-07T08:41:52;5.88;;;2.58;;
25495;SDS011;13405;54.370;10.028;2022-08-07T08:44:23;4.72;;;2.58;;
25495;SDS011;13405;54.370;10.028;2022-08-07T08:49:22;3.88;;;2.50;;
25495;SDS011;13405;54.370;10.028;2022-08-07T08:51:53;4.88;;;2.47;;
25495;SDS011;13405;54.370;10.028;2022-08-07T08:56:53;5.78;;;2.53;;
25495;SDS011;13405;54.370;10.028;2022-08-07T08:59:26;3.95;;;2.47;;
25495;SDS011;13405;54.370;10.028;2022-08-07T09:09:40;6.18;;;2.55;;
25495;SDS011;13405;54.370;10.028;2022-08-07T09:20:03;3.20;;;2.22;;
25495;SDS011;13405;54.370;10.028;2022-08-07T09:25:13;4.43;;;2.33;;
25495;SDS011;13405;54.370;10.028;2022-08-07T09:27:43;2.97;;;2.05;;
25495;SDS011;13405;54.370;10.028;2022-08-07T09:30:10;5.60;;;2.05;;
25495;SDS011;13405;54.370;10.028;2022-08-07T09:38:01;2.63;;;1.83;;
25495;SDS011;13405;54.370;10.028;2022-08-07T09:40:37;2.13;;;1.70;;
25495;SDS011;13405;54.370;10.028;2022-08-07T09:45:41;5.05;;;1.90;;
25495;SDS011;13405;54.370;10.028;2022-08-07T09:53:41;2.70;;;1.98;;
25495;SDS011;13405;54.370;10.028;2022-08-07T09:56:22;3.10;;;1.80;;
25495;SDS011;13405;54.370;10.028;2022-08-07T10:04:09;2.15;;;1.55;;
25495;SDS011;13405;54.370;10.028;2022-08-07T10:06:45;3.28;;;1.98;;
25495;SDS011;13405;54.370;10.028;2022-08-07T10:30:42;2.72;;;1.92;;
25495;SDS011;13405;54.370;10.028;2022-08-07T10:43:47;2.65;;;1.80;;
25495;SDS011;13405;54.370;10.028;2022-08-07T10:46:17;2.25;;;1.73;;
25495;SDS011;13405;54.370;10.028;2022-08-07T10:59:05;4.72;;;1.70;;
25495;SDS011;13405;54.370;10.028;2022-08-07T11:01:38;2.80;;;1.98;;
25495;SDS011;13405;54.370;10.028;2022-08-07T11:04:09;2.20;;;1.63;;
25495;SDS011;13405;54.370;10.028;2022-08-07T11:09:22;3.42;;;2.17;;
25495;SDS011;13405;54.370;10.028;2022-08-07T11:11:55;4.55;;;1.90;;
25495;SDS011;13405;54.370;10.028;2022-08-07T11:14:27;5.13;;;2.37;;
25495;SDS011;13405;54.370;10.028;2022-08-07T11:16:57;4.95;;;2.05;;
25495;SDS011;13405;54.370;10.028;2022-08-07T11:22:13;2.83;;;1.85;;
25495;SDS011;13405;54.370;10.028;2022-08-07T11:32:22;2.53;;;1.95;;
25495;SDS011;13405;54.370;10.028;2022-08-07T11:34:56;2.30;;;1.65;;
25495;SDS011;13405;54.370;10.028;2022-08-07T11:47:40;2.70;;;1.90;;
25495;SDS011;13405;54.370;10.028;2022-08-07T11:50:20;3.60;;;1.90;;
25495;SDS011;13405;54.370;10.028;2022-08-07T11:53:08;6.47;;;2.00;;
25495;SDS011;13405;54.370;10.028;2022-08-07T12:09:12;3.70;;;1.80;;
25495;SDS011;13405;54.370;10.028;2022-08-07T12:11:45;2.47;;;1.92;;
25495;SDS011;13405;54.370;10.028;2022-08-07T12:14:19;3.30;;;1.90;;
25495;SDS011;13405;54.370;10.028;2022-08-07T12:19:16;2.00;;;1.70;;
25495;SDS011;13405;54.370;10.028;2022-08-07T12:27:08;4.07;;;1.60;;
25495;SDS011;13405;54.370;10.028;2022-08-07T12:29:53;3.13;;;2.13;;
25495;SDS011;13405;54.370;10.028;2022-08-07T12:32:19;3.95;;;1.65;;
25495;SDS011;13405;54.370;10.028;2022-08-07T12:34:46;3.10;;;1.80;;
25495;SDS011;13405;54.370;10.028;2022-08-07T12:37:14;1.83;;;1.23;;
25495;SDS011;13405;54.370;10.028;2022-08-07T12:39:43;4.55;;;1.75;;
25495;SDS011;13405;54.370;10.028;2022-08-07T12:42:11;2.92;;;2.08;;
25495;SDS011;13405;54.370;10.028;2022-08-07T12:44:38;2.35;;;1.52;;
25495;SDS011;13405;54.370;10.028;2022-08-07T12:47:15;3.88;;;1.42;;
25495;SDS011;13405;54.370;10.028;2022-08-07T12:52:12;5.68;;;1.35;;
25495;SDS011;13405;54.370;10.028;2022-08-07T12:57:07;3.38;;;1.77;;
25495;SDS011;13405;54.370;10.028;2022-08-07T12:59:35;2.22;;;1.58;;
25495;SDS011;13405;54.370;10.028;2022-08-07T13:18:36;3.58;;;1.50;;
25495;SDS011;13405;54.370;10.028;2022-08-07T13:21:23;2.65;;;1.63;;
25495;SDS011;13405;54.370;10.028;2022-08-07T13:23:53;3.70;;;1.50;;
25495;SDS011;13405;54.370;10.028;2022-08-07T13:29:10;1.50;;;1.40;;
25495;SDS011;13405;54.370;10.028;2022-08-07T13:31:51;6.80;;;1.45;;
25495;SDS011;13405;54.370;10.028;2022-08-07T13:34:32;4.40;;;1.67;;
25495;SDS011;13405;54.370;10.028;2022-08-07T13:37:07;2.33;;;1.50;;
25495;SDS011;13405;54.370;10.028;2022-08-07T13:39:55;2.00;;;1.63;;
25495;SDS011;13405;54.370;10.028;2022-08-07T13:42:24;4.22;;;1.58;;
25495;SDS011;13405;54.370;10.028;2022-08-07T13:44:53;2.72;;;1.50;;
25495;SDS011;13405;54.370;10.028;2022-08-07T13:47:20;2.65;;;1.67;;
25495;SDS011;13405;54.370;10.028;2022-08-07T13:49:47;2.67;;;1.30;;
25495;SDS011;13405;54.370;10.028;2022-08-07T13:52:14;2.50;;;1.60;;
25495;SDS011;13405;54.370;10.028;2022-08-07T13:54:40;1.77;;;1.23;;
25495;SDS011;13405;54.370;10.028;2022-08-07T13:57:08;1.33;;;1.23;;
25495;SDS011;13405;54.370;10.028;2022-08-07T13:59:41;1.85;;;1.17;;
25495;SDS011;13405;54.370;10.028;2022-08-07T14:02:18;2.53;;;1.15;;
25495;SDS011;13405;54.370;10.028;2022-08-07T14:04:50;2.85;;;1.30;;
25495;SDS011;13405;54.370;10.028;2022-08-07T14:07:27;4.00;;;1.30;;
25495;SDS011;13405;54.370;10.028;2022-08-07T14:09:55;4.28;;;1.35;;
25495;SDS011;13405;54.370;10.028;2022-08-07T14:12:25;1.55;;;1.10;;
25495;SDS011;13405;54.370;10.028;2022-08-07T14:14:59;2.33;;;1.38;;
25495;SDS011;13405;54.370;10.028;2022-08-07T14:17:26;1.70;;;1.13;;
25495;SDS011;13405;54.370;10.028;2022-08-07T14:20:08;2.55;;;1.40;;
25495;SDS011;13405;54.370;10.028;2022-08-07T14:22:34;2.10;;;1.33;;
25495;SDS011;13405;54.370;10.028;2022-08-07T14:25:12;1.38;;;1.23;;
25495;SDS011;13405;54.370;10.028;2022-08-07T14:27:40;3.03;;;1.00;;
25495;SDS011;13405;54.370;10.028;2022-08-07T14:30:08;1.20;;;0.98;;
25495;SDS011;13405;54.370;10.028;2022-08-07T14:32:54;1.90;;;0.85;;
25495;SDS011;13405;54.370;10.028;2022-08-07T14:35:30;1.45;;;0.90;;
25495;SDS011;13405;54.370;10.028;2022-08-07T14:37:56;1.55;;;0.80;;
25495;SDS011;13405;54.370;10.028;2022-08-07T14:40:24;1.77;;;0.70;;
25495;SDS011;13405;54.370;10.028;2022-08-07T14:45:23;0.70;;;0.70;;
25495;SDS011;13405;54.370;10.028;2022-08-07T14:47:50;3.50;;;0.88;;
25495;SDS011;13405;54.370;10.028;2022-08-07T14:50:16;5.55;;;0.82;;
25495;SDS011;13405;54.370;10.028;2022-08-07T14:52:44;1.10;;;0.77;;
25495;SDS011;13405;54.370;10.028;2022-08-07T14:55:12;1.50;;;0.98;;
25495;SDS011;13405;54.370;10.028;2022-08-07T14:57:39;0.90;;;0.77;;
25495;SDS011;13405;54.370;10.028;2022-08-07T15:00:06;2.20;;;0.85;;
25495;SDS011;13405;54.370;10.028;2022-08-07T15:02:33;1.30;;;0.70;;
25495;SDS011;13405;54.370;10.028;2022-08-07T15:05:01;1.27;;;0.80;;
25495;SDS011;13405;54.370;10.028;2022-08-07T15:07:27;3.75;;;0.98;;
25495;SDS011;13405;54.370;10.028;2022-08-07T15:09:56;1.20;;;1.00;;
25495;SDS011;13405;54.370;10.028;2022-08-07T15:12:27;2.90;;;0.90;;
25495;SDS011;13405;54.370;10.028;2022-08-07T15:14:54;1.20;;;1.10;;
25495;SDS011;13405;54.370;10.028;2022-08-07T15:17:31;1.85;;;1.15;;
25495;SDS011;13405;54.370;10.028;2022-08-07T15:20:03;1.17;;;0.82;;
25495;SDS011;13405;54.370;10.028;2022-08-07T15:22:31;0.90;;;0.80;;
25495;SDS011;13405;54.370;10.028;2022-08-07T15:25:01;2.17;;;0.88;;
25495;SDS011;13405;54.370;10.028;2022-08-07T15:27:27;0.77;;;0.70;;
25495;SDS011;13405;54.370;10.028;2022-08-07T15:29:56;2.45;;;0.80;;
25495;SDS011;13405;54.370;10.028;2022-08-07T15:32:24;1.27;;;0.60;;
25495;SDS011;13405;54.370;10.028;2022-08-07T15:34:54;1.83;;;1.00;;
25495;SDS011;13405;54.370;10.028;2022-08-07T15:37:23;3.53;;;0.80;;
25495;SDS011;13405;54.370;10.028;2022-08-07T15:39:52;0.98;;;0.80;;
25495;SDS011;13405;54.370;10.028;2022-08-07T15:45:05;1.42;;;0.80;;
25495;SDS011;13405;54.370;10.028;2022-08-07T15:47:33;2.75;;;0.90;;
25495;SDS011;13405;54.370;10.028;2022-08-07T15:49:59;1.25;;;0.80;;
25495;SDS011;13405;54.370;10.028;2022-08-07T15:52:27;4.75;;;0.95;;
25495;SDS011;13405;54.370;10.028;2022-08-07T15:54:54;1.30;;;0.90;;
25495;SDS011;13405;54.370;10.028;2022-08-07T15:57:27;1.45;;;1.00;;
25495;SDS011;13405;54.370;10.028;2022-08-07T15:59:54;1.25;;;0.77;;
25495;SDS011;13405;54.370;10.028;2022-08-07T16:02:24;2.15;;;1.10;;
25495;SDS011;13405;54.370;10.028;2022-08-07T16:04:54;1.20;;;1.00;;
25495;SDS011;13405;54.370;10.028;2022-08-07T16:07:25;0.73;;;0.70;;
25495;SDS011;13405;54.370;10.028;2022-08-07T16:09:52;1.80;;;1.08;;
25495;SDS011;13405;54.370;10.028;2022-08-07T16:25:31;1.52;;;0.90;;
25495;SDS011;13405;54.370;10.028;2022-08-07T16:30:30;4.57;;;1.25;;
25495;SDS011;13405;54.370;10.028;2022-08-07T16:33:16;3.28;;;1.48;;
25495;SDS011;13405;54.370;10.028;2022-08-07T16:35:45;2.70;;;0.95;;
25495;SDS011;13405;54.370;10.028;2022-08-07T16:50:57;2.40;;;0.88;;
25495;SDS011;13405;54.370;10.028;2022-08-07T16:53:42;1.77;;;0.73;;
25495;SDS011;13405;54.370;10.028;2022-08-07T16:56:19;2.45;;;0.70;;
25495;SDS011;13405;54.370;10.028;2022-08-07T16:58:54;1.38;;;0.95;;
25495;SDS011;13405;54.370;10.028;2022-08-07T17:01:28;2.58;;;0.90;;
25495;SDS011;13405;54.370;10.028;2022-08-07T17:04:09;1.13;;;0.90;;
25495;SDS011;13405;54.370;10.028;2022-08-07T17:11:44;1.33;;;0.90;;
25495;SDS011;13405;54.370;10.028;2022-08-07T17:14:14;1.85;;;0.93;;
25495;SDS011;13405;54.370;10.028;2022-08-07T17:16:48;6.80;;;1.03;;
25495;SDS011;13405;54.370;10.028;2022-08-07T17:19:24;1.02;;;0.95;;
25495;SDS011;13405;54.370;10.028;2022-08-07T17:21:53;2.65;;;0.90;;
25495;SDS011;13405;54.370;10.028;2022-08-07T17:26:57;1.77;;;0.82;;
25495;SDS011;13405;54.370;10.028;2022-08-07T17:32:16;1.38;;;0.88;;
25495;SDS011;13405;54.370;10.028;2022-08-07T17:34:47;1.90;;;1.00;;
25495;SDS011;13405;54.370;10.028;2022-08-07T17:37:50;0.85;;;0.68;;
25495;SDS011;13405;54.370;10.028;2022-08-07T17:45:11;0.65;;;0.65;;
25495;SDS011;13405;54.370;10.028;2022-08-07T17:47:43;1.67;;;0.70;;
25495;SDS011;13405;54.370;10.028;2022-08-07T17:53:04;1.27;;;0.80;;
25495;SDS011;13405;54.370;10.028;2022-08-07T17:55:45;0.73;;;0.60;;
25495;SDS011;13405;54.370;10.028;2022-08-07T17:58:17;1.60;;;0.68;;
25495;SDS011;13405;54.370;10.028;2022-08-07T18:00:46;0.60;;;0.60;;
25495;SDS011;13405;54.370;10.028;2022-08-07T18:03:30;0.68;;;0.65;;
25495;SDS011;13405;54.370;10.028;2022-08-07T18:06:04;3.20;;;0.80;;
25495;SDS011;13405;54.370;10.028;2022-08-07T18:18:51;1.55;;;0.60;;
25495;SDS011;13405;54.370;10.028;2022-08-07T18:21:32;0.93;;;0.77;;
25495;SDS011;13405;54.370;10.028;2022-08-07T18:24:02;3.45;;;0.68;;
25495;SDS011;13405;54.370;10.028;2022-08-07T18:29:15;1.08;;;0.55;;
25495;SDS011;13405;54.370;10.028;2022-08-07T18:31:45;2.35;;;0.70;;
25495;SDS011;13405;54.370;10.028;2022-08-07T18:34:18;1.48;;;0.65;;
25495;SDS011;13405;54.370;10.028;2022-08-07T18:36:57;0.77;;;0.68;;
25495;SDS011;13405;54.370;10.028;2022-08-07T18:44:53;0.93;;;0.70;;